sensor_id;sensor_type;location;lat;lon;timestamp;P1;durP1;ratioP1;P2;durP2;ratioP2
76610;SDS011;65503;48.534;9.062;2023-10-13T00:02:10;8.40;;;3.40;;
76610;SDS011;65503;48.534;9.062;2023-10-13T00:04:37;6.53;;;3.10;;
76610;SDS011;65503;48.534;9.062;2023-10-13T00:07:03;6.13;;;2.70;;
76610;SDS011;65503;48.534;9.062;2023-10-13T00:09:31;6.03;;;2.63;;
76610;SDS011;65503;48.534;9.062;2023-10-13T00:12:04;8.02;;;3.20;;
76610;SDS011;65503;48.534;9.062;2023-10-13T00:14:40;5.05;;;2.50;;
76610;SDS011;65503;48.534;9.062;2023-10-13T00:17:08;6.88;;;3.00;;
76610;SDS011;65503;48.534;9.062;2023-10-13T00:19:37;6.68;;;2.90;;
76610;SDS011;65503;48.534;9.062;2023-10-13T00:22:10;6.38;;;2.92;;
76610;SDS011;65503;48.534;9.062;2023-10-13T00:24:38;6.90;;;2.47;;
76610;SDS011;65503;48.534;9.062;2023-10-13T00:27:12;7.78;;;2.85;;
76610;SDS011;65503;48.534;9.062;2023-10-13T00:32:47;7.70;;;2.97;;
76610;SDS011;65503;48.534;9.062;2023-10-13T00:35:23;8.55;;;2.90;;
76610;SDS011;65503;48.534;9.062;2023-10-13T00:37:51;7.05;;;3.30;;
76610;SDS011;65503;48.534;9.062;2023-10-13T00:40:20;5.70;;;2.72;;
76610;SDS011;65503;48.534;9.062;2023-10-13T00:45:53;7.05;;;2.83;;
76610;SDS011;65503;48.534;9.062;2023-10-13T00:48:24;7.43;;;2.70;;
76610;SDS011;65503;48.534;9.062;2023-10-13T00:50:56;6.60;;;2.80;;
76610;SDS011;65503;48.534;9.062;2023-10-13T00:53:25;8.45;;;2.90;;
76610;SDS011;65503;48.534;9.062;2023-10-13T00:55:52;6.00;;;2.85;;
76610;SDS011;65503;48.534;9.062;2023-10-13T00:58:22;6.53;;;3.20;;
76610;SDS011;65503;48.534;9.062;2023-10-13T01:00:51;6.60;;;2.65;;
76610;SDS011;65503;48.534;9.062;2023-10-13T01:03:38;6.30;;;2.75;;
76610;SDS011;65503;48.534;9.062;2023-10-13T01:06:05;7.25;;;3.28;;
76610;SDS011;65503;48.534;9.062;2023-10-13T01:08:33;8.10;;;3.00;;
76610;SDS011;65503;48.534;9.062;2023-10-13T01:11:04;6.88;;;2.95;;
76610;SDS011;65503;48.534;9.062;2023-10-13T01:13:34;6.97;;;2.90;;
76610;SDS011;65503;48.534;9.062;2023-10-13T01:16:03;7.28;;;3.50;;
76610;SDS011;65503;48.534;9.062;2023-10-13T01:18:31;6.55;;;3.10;;
76610;SDS011;65503;48.534;9.062;2023-10-13T01:20:57;6.63;;;3.00;;
76610;SDS011;65503;48.534;9.062;2023-10-13T01:25:55;5.60;;;2.65;;
76610;SDS011;65503;48.534;9.062;2023-10-13T01:28:24;7.32;;;3.28;;
76610;SDS011;65503;48.534;9.062;2023-10-13T01:30:50;8.05;;;3.25;;
76610;SDS011;65503;48.534;9.062;2023-10-13T01:33:18;7.30;;;3.30;;
76610;SDS011;65503;48.534;9.062;2023-10-13T01:35:54;7.57;;;3.30;;
76610;SDS011;65503;48.534;9.062;2023-10-13T01:38:23;6.90;;;3.30;;
76610;SDS011;65503;48.534;9.062;2023-10-13T01:40:52;7.47;;;3.58;;
76610;SDS011;65503;48.534;9.062;2023-10-13T01:43:19;7.13;;;3.25;;
76610;SDS011;65503;48.534;9.062;2023-10-13T01:45:46;6.85;;;3.05;;
76610;SDS011;65503;48.534;9.062;2023-10-13T01:48:16;6.32;;;3.25;;
76610;SDS011;65503;48.534;9.062;2023-10-13T01:50:45;8.45;;;3.22;;
76610;SDS011;65503;48.534;9.062;2023-10-13T01:53:18;6.18;;;3.33;;
76610;SDS011;65503;48.534;9.062;2023-10-13T01:55:45;7.07;;;3.65;;
76610;SDS011;65503;48.534;9.062;2023-10-13T01:58:13;8.02;;;3.85;;
76610;SDS011;65503;48.534;9.062;2023-10-13T02:00:42;7.05;;;3.90;;
76610;SDS011;65503;48.534;9.062;2023-10-13T02:03:10;7.95;;;3.90;;
76610;SDS011;65503;48.534;9.062;2023-10-13T02:05:44;7.82;;;3.80;;
76610;SDS011;65503;48.534;9.062;2023-10-13T02:08:14;8.40;;;3.95;;
76610;SDS011;65503;48.534;9.062;2023-10-13T02:10:51;9.63;;;4.13;;
76610;SDS011;65503;48.534;9.062;2023-10-13T02:13:20;7.43;;;3.60;;
76610;SDS011;65503;48.534;9.062;2023-10-13T02:15:49;8.75;;;3.78;;
76610;SDS011;65503;48.534;9.062;2023-10-13T02:18:19;8.18;;;3.97;;
76610;SDS011;65503;48.534;9.062;2023-10-13T02:21:08;8.60;;;3.83;;
76610;SDS011;65503;48.534;9.062;2023-10-13T02:23:40;6.53;;;3.67;;
76610;SDS011;65503;48.534;9.062;2023-10-13T02:26:11;8.38;;;3.58;;
76610;SDS011;65503;48.534;9.062;2023-10-13T02:28:42;7.80;;;3.35;;
76610;SDS011;65503;48.534;9.062;2023-10-13T02:31:17;7.63;;;3.42;;
76610;SDS011;65503;48.534;9.062;2023-10-13T02:33:46;9.38;;;3.63;;
76610;SDS011;65503;48.534;9.062;2023-10-13T02:36:12;9.23;;;4.32;;
76610;SDS011;65503;48.534;9.062;2023-10-13T02:38:39;9.75;;;3.63;;
76610;SDS011;65503;48.534;9.062;2023-10-13T02:41:16;8.05;;;3.80;;
76610;SDS011;65503;48.534;9.062;2023-10-13T02:43:52;6.97;;;3.78;;
76610;SDS011;65503;48.534;9.062;2023-10-13T02:46:20;10.18;;;4.07;;
76610;SDS011;65503;48.534;9.062;2023-10-13T02:48:56;8.63;;;3.75;;
76610;SDS011;65503;48.534;9.062;2023-10-13T02:51:28;9.80;;;4.20;;
76610;SDS011;65503;48.534;9.062;2023-10-13T02:54:02;7.88;;;3.30;;
76610;SDS011;65503;48.534;9.062;2023-10-13T02:56:35;8.48;;;3.65;;
76610;SDS011;65503;48.534;9.062;2023-10-13T02:59:03;8.13;;;3.35;;
76610;SDS011;65503;48.534;9.062;2023-10-13T03:01:32;8.98;;;3.80;;
76610;SDS011;65503;48.534;9.062;2023-10-13T03:04:03;11.65;;;3.97;;
76610;SDS011;65503;48.534;9.062;2023-10-13T03:06:35;8.35;;;3.65;;
76610;SDS011;65503;48.534;9.062;2023-10-13T03:09:09;7.75;;;3.75;;
76610;SDS011;65503;48.534;9.062;2023-10-13T03:11:46;8.45;;;3.78;;
76610;SDS011;65503;48.534;9.062;2023-10-13T03:14:20;7.45;;;4.03;;
76610;SDS011;65503;48.534;9.062;2023-10-13T03:16:55;7.47;;;3.75;;
76610;SDS011;65503;48.534;9.062;2023-10-13T03:19:32;8.57;;;4.05;;
76610;SDS011;65503;48.534;9.062;2023-10-13T03:22:00;7.63;;;4.40;;
76610;SDS011;65503;48.534;9.062;2023-10-13T03:24:37;9.27;;;3.70;;
76610;SDS011;65503;48.534;9.062;2023-10-13T03:27:12;9.40;;;4.55;;
76610;SDS011;65503;48.534;9.062;2023-10-13T03:29:43;9.20;;;4.13;;
76610;SDS011;65503;48.534;9.062;2023-10-13T03:32:11;9.13;;;4.32;;
76610;SDS011;65503;48.534;9.062;2023-10-13T03:34:38;9.55;;;4.03;;
76610;SDS011;65503;48.534;9.062;2023-10-13T03:37:26;8.88;;;4.25;;
76610;SDS011;65503;48.534;9.062;2023-10-13T03:40:09;8.30;;;4.10;;
76610;SDS011;65503;48.534;9.062;2023-10-13T03:42:49;9.93;;;4.38;;
76610;SDS011;65503;48.534;9.062;2023-10-13T03:48:07;7.47;;;3.83;;
76610;SDS011;65503;48.534;9.062;2023-10-13T03:50:58;8.18;;;3.90;;
76610;SDS011;65503;48.534;9.062;2023-10-13T03:53:30;7.78;;;4.05;;
76610;SDS011;65503;48.534;9.062;2023-10-13T03:56:00;9.20;;;3.78;;
76610;SDS011;65503;48.534;9.062;2023-10-13T03:58:58;7.80;;;3.67;;
76610;SDS011;65503;48.534;9.062;2023-10-13T04:01:45;9.85;;;4.00;;
76610;SDS011;65503;48.534;9.062;2023-10-13T04:04:15;6.85;;;3.80;;
76610;SDS011;65503;48.534;9.062;2023-10-13T04:07:03;7.75;;;3.60;;
76610;SDS011;65503;48.534;9.062;2023-10-13T04:09:36;7.07;;;3.83;;
76610;SDS011;65503;48.534;9.062;2023-10-13T04:12:13;9.38;;;4.25;;
76610;SDS011;65503;48.534;9.062;2023-10-13T04:14:41;9.43;;;4.10;;
76610;SDS011;65503;48.534;9.062;2023-10-13T04:17:24;9.48;;;4.25;;
76610;SDS011;65503;48.534;9.062;2023-10-13T04:19:56;8.13;;;4.45;;
76610;SDS011;65503;48.534;9.062;2023-10-13T04:22:34;8.27;;;4.00;;
76610;SDS011;65503;48.534;9.062;2023-10-13T04:25:17;8.85;;;3.95;;
76610;SDS011;65503;48.534;9.062;2023-10-13T04:28:07;7.55;;;3.80;;
76610;SDS011;65503;48.534;9.062;2023-10-13T04:36:07;7.82;;;3.92;;
76610;SDS011;65503;48.534;9.062;2023-10-13T04:38:48;9.18;;;4.07;;
76610;SDS011;65503;48.534;9.062;2023-10-13T04:44:24;7.20;;;3.45;;
76610;SDS011;65503;48.534;9.062;2023-10-13T04:47:09;10.25;;;3.83;;
76610;SDS011;65503;48.534;9.062;2023-10-13T04:49:44;9.07;;;4.18;;
76610;SDS011;65503;48.534;9.062;2023-10-13T04:52:14;8.98;;;4.28;;
76610;SDS011;65503;48.534;9.062;2023-10-13T04:54:53;10.50;;;4.07;;
76610;SDS011;65503;48.534;9.062;2023-10-13T04:57:24;10.05;;;3.83;;
76610;SDS011;65503;48.534;9.062;2023-10-13T05:00:09;9.52;;;4.25;;
76610;SDS011;65503;48.534;9.062;2023-10-13T05:02:36;8.40;;;3.97;;
76610;SDS011;65503;48.534;9.062;2023-10-13T05:07:41;7.97;;;4.30;;
76610;SDS011;65503;48.534;9.062;2023-10-13T05:10:27;8.50;;;4.78;;
76610;SDS011;65503;48.534;9.062;2023-10-13T05:13:13;9.27;;;4.40;;
76610;SDS011;65503;48.534;9.062;2023-10-13T05:15:58;9.88;;;4.60;;
76610;SDS011;65503;48.534;9.062;2023-10-13T05:18:43;10.48;;;4.20;;
76610;SDS011;65503;48.534;9.062;2023-10-13T05:21:28;10.85;;;5.28;;
76610;SDS011;65503;48.534;9.062;2023-10-13T05:24:14;9.30;;;5.10;;
76610;SDS011;65503;48.534;9.062;2023-10-13T05:26:59;8.85;;;4.38;;
76610;SDS011;65503;48.534;9.062;2023-10-13T05:29:45;9.63;;;4.60;;
76610;SDS011;65503;48.534;9.062;2023-10-13T05:32:32;8.77;;;4.55;;
76610;SDS011;65503;48.534;9.062;2023-10-13T05:35:19;10.18;;;5.10;;
76610;SDS011;65503;48.534;9.062;2023-10-13T05:38:05;11.45;;;4.35;;
76610;SDS011;65503;48.534;9.062;2023-10-13T05:40:57;8.63;;;4.35;;
76610;SDS011;65503;48.534;9.062;2023-10-13T05:43:47;9.10;;;4.60;;
76610;SDS011;65503;48.534;9.062;2023-10-13T05:46:33;12.48;;;4.68;;
76610;SDS011;65503;48.534;9.062;2023-10-13T05:49:03;8.95;;;4.63;;
76610;SDS011;65503;48.534;9.062;2023-10-13T05:51:43;9.80;;;5.38;;
76610;SDS011;65503;48.534;9.062;2023-10-13T05:54:24;11.40;;;5.10;;
76610;SDS011;65503;48.534;9.062;2023-10-13T05:57:09;11.30;;;4.78;;
76610;SDS011;65503;48.534;9.062;2023-10-13T05:59:54;9.63;;;4.85;;
76610;SDS011;65503;48.534;9.062;2023-10-13T06:02:39;10.15;;;4.68;;
76610;SDS011;65503;48.534;9.062;2023-10-13T06:05:25;11.52;;;4.97;;
76610;SDS011;65503;48.534;9.062;2023-10-13T06:08:09;12.25;;;5.00;;
76610;SDS011;65503;48.534;9.062;2023-10-13T06:11:00;12.30;;;4.82;;
76610;SDS011;65503;48.534;9.062;2023-10-13T06:13:46;10.45;;;5.60;;
76610;SDS011;65503;48.534;9.062;2023-10-13T06:16:32;11.90;;;4.57;;
76610;SDS011;65503;48.534;9.062;2023-10-13T06:19:18;11.40;;;4.97;;
76610;SDS011;65503;48.534;9.062;2023-10-13T06:22:03;10.13;;;4.88;;
76610;SDS011;65503;48.534;9.062;2023-10-13T06:24:48;11.00;;;4.93;;
76610;SDS011;65503;48.534;9.062;2023-10-13T06:27:33;9.75;;;4.55;;
76610;SDS011;65503;48.534;9.062;2023-10-13T06:30:18;10.48;;;5.00;;
76610;SDS011;65503;48.534;9.062;2023-10-13T06:35:13;9.32;;;4.65;;
76610;SDS011;65503;48.534;9.062;2023-10-13T06:37:50;10.82;;;4.45;;
76610;SDS011;65503;48.534;9.062;2023-10-13T06:40:17;10.63;;;4.90;;
76610;SDS011;65503;48.534;9.062;2023-10-13T06:42:53;10.20;;;4.75;;
76610;SDS011;65503;48.534;9.062;2023-10-13T06:45:21;10.05;;;5.03;;
76610;SDS011;65503;48.534;9.062;2023-10-13T06:47:48;9.55;;;4.80;;
76610;SDS011;65503;48.534;9.062;2023-10-13T06:50:18;9.32;;;4.65;;
76610;SDS011;65503;48.534;9.062;2023-10-13T06:52:51;9.07;;;4.32;;
76610;SDS011;65503;48.534;9.062;2023-10-13T06:55:21;10.35;;;4.68;;
76610;SDS011;65503;48.534;9.062;2023-10-13T06:57:54;10.25;;;4.50;;
76610;SDS011;65503;48.534;9.062;2023-10-13T07:00:27;11.57;;;4.40;;
76610;SDS011;65503;48.534;9.062;2023-10-13T07:03:01;10.63;;;4.55;;
76610;SDS011;65503;48.534;9.062;2023-10-13T07:05:45;10.38;;;4.38;;
76610;SDS011;65503;48.534;9.062;2023-10-13T07:08:15;10.25;;;4.88;;
76610;SDS011;65503;48.534;9.062;2023-10-13T07:10:51;10.90;;;4.63;;
76610;SDS011;65503;48.534;9.062;2023-10-13T07:13:28;8.80;;;4.13;;
76610;SDS011;65503;48.534;9.062;2023-10-13T07:15:55;7.68;;;4.20;;
76610;SDS011;65503;48.534;9.062;2023-10-13T07:18:40;10.20;;;4.15;;
76610;SDS011;65503;48.534;9.062;2023-10-13T07:21:29;8.57;;;4.32;;
76610;SDS011;65503;48.534;9.062;2023-10-13T07:23:58;9.70;;;3.97;;
76610;SDS011;65503;48.534;9.062;2023-10-13T07:26:35;9.15;;;4.10;;
76610;SDS011;65503;48.534;9.062;2023-10-13T07:29:25;8.15;;;4.32;;
76610;SDS011;65503;48.534;9.062;2023-10-13T07:31:52;8.27;;;4.30;;
76610;SDS011;65503;48.534;9.062;2023-10-13T07:34:18;9.77;;;4.55;;
76610;SDS011;65503;48.534;9.062;2023-10-13T07:36:53;13.05;;;5.07;;
76610;SDS011;65503;48.534;9.062;2023-10-13T07:39:25;8.90;;;4.40;;
76610;SDS011;65503;48.534;9.062;2023-10-13T07:41:54;8.70;;;4.25;;
76610;SDS011;65503;48.534;9.062;2023-10-13T07:44:24;9.75;;;4.43;;
76610;SDS011;65503;48.534;9.062;2023-10-13T07:46:59;8.00;;;3.95;;
76610;SDS011;65503;48.534;9.062;2023-10-13T07:49:30;8.60;;;3.90;;
76610;SDS011;65503;48.534;9.062;2023-10-13T07:52:01;8.90;;;3.92;;
76610;SDS011;65503;48.534;9.062;2023-10-13T07:54:53;8.45;;;3.72;;
76610;SDS011;65503;48.534;9.062;2023-10-13T07:57:37;10.00;;;4.05;;
76610;SDS011;65503;48.534;9.062;2023-10-13T08:00:20;9.43;;;3.95;;
76610;SDS011;65503;48.534;9.062;2023-10-13T08:03:10;8.13;;;3.65;;
76610;SDS011;65503;48.534;9.062;2023-10-13T08:05:43;9.70;;;3.80;;
76610;SDS011;65503;48.534;9.062;2023-10-13T08:08:29;9.25;;;4.07;;
76610;SDS011;65503;48.534;9.062;2023-10-13T08:11:08;7.40;;;3.80;;
76610;SDS011;65503;48.534;9.062;2023-10-13T08:13:59;8.10;;;3.97;;
76610;SDS011;65503;48.534;9.062;2023-10-13T08:16:43;9.15;;;3.80;;
76610;SDS011;65503;48.534;9.062;2023-10-13T08:19:23;7.47;;;4.00;;
76610;SDS011;65503;48.534;9.062;2023-10-13T08:21:54;9.23;;;4.22;;
76610;SDS011;65503;48.534;9.062;2023-10-13T08:24:26;8.57;;;4.22;;
76610;SDS011;65503;48.534;9.062;2023-10-13T08:27:17;10.23;;;3.97;;
76610;SDS011;65503;48.534;9.062;2023-10-13T08:30:05;10.05;;;4.35;;
76610;SDS011;65503;48.534;9.062;2023-10-13T08:32:52;8.02;;;3.95;;
76610;SDS011;65503;48.534;9.062;2023-10-13T08:35:26;10.35;;;4.00;;
76610;SDS011;65503;48.534;9.062;2023-10-13T08:37:56;8.43;;;3.42;;
76610;SDS011;65503;48.534;9.062;2023-10-13T08:40:41;8.63;;;3.60;;
76610;SDS011;65503;48.534;9.062;2023-10-13T08:43:23;8.32;;;3.72;;
76610;SDS011;65503;48.534;9.062;2023-10-13T08:48:17;6.38;;;3.20;;
76610;SDS011;65503;48.534;9.062;2023-10-13T08:50:47;11.35;;;3.92;;
76610;SDS011;65503;48.534;9.062;2023-10-13T08:53:22;9.77;;;3.17;;
76610;SDS011;65503;48.534;9.062;2023-10-13T08:56:02;9.45;;;3.50;;
76610;SDS011;65503;48.534;9.062;2023-10-13T08:58:42;11.43;;;3.80;;
76610;SDS011;65503;48.534;9.062;2023-10-13T09:01:29;12.45;;;2.75;;
76610;SDS011;65503;48.534;9.062;2023-10-13T09:04:13;9.23;;;2.78;;
76610;SDS011;65503;48.534;9.062;2023-10-13T09:09:32;10.82;;;2.42;;
76610;SDS011;65503;48.534;9.062;2023-10-13T09:12:25;7.97;;;2.63;;
76610;SDS011;65503;48.534;9.062;2023-10-13T09:15:03;7.55;;;2.78;;
76610;SDS011;65503;48.534;9.062;2023-10-13T09:17:43;10.98;;;2.80;;
76610;SDS011;65503;48.534;9.062;2023-10-13T09:20:34;11.82;;;2.63;;
76610;SDS011;65503;48.534;9.062;2023-10-13T09:23:10;6.82;;;2.60;;
76610;SDS011;65503;48.534;9.062;2023-10-13T09:25:40;7.60;;;2.55;;
76610;SDS011;65503;48.534;9.062;2023-10-13T09:28:39;11.00;;;2.90;;
76610;SDS011;65503;48.534;9.062;2023-10-13T09:31:06;8.30;;;3.47;;
76610;SDS011;65503;48.534;9.062;2023-10-13T09:33:36;6.40;;;3.03;;
76610;SDS011;65503;48.534;9.062;2023-10-13T09:38:34;8.40;;;2.55;;
76610;SDS011;65503;48.534;9.062;2023-10-13T09:41:06;9.25;;;2.80;;
76610;SDS011;65503;48.534;9.062;2023-10-13T09:43:45;7.13;;;2.50;;
76610;SDS011;65503;48.534;9.062;2023-10-13T09:46:19;6.57;;;2.53;;
76610;SDS011;65503;48.534;9.062;2023-10-13T09:48:50;6.05;;;2.25;;
76610;SDS011;65503;48.534;9.062;2023-10-13T09:51:40;7.85;;;2.50;;
76610;SDS011;65503;48.534;9.062;2023-10-13T09:54:18;11.50;;;3.00;;
76610;SDS011;65503;48.534;9.062;2023-10-13T09:57:05;12.13;;;2.50;;
76610;SDS011;65503;48.534;9.062;2023-10-13T09:59:45;5.80;;;2.15;;
76610;SDS011;65503;48.534;9.062;2023-10-13T10:02:19;9.70;;;2.92;;
76610;SDS011;65503;48.534;9.062;2023-10-13T10:04:55;9.88;;;2.70;;
76610;SDS011;65503;48.534;9.062;2023-10-13T10:07:38;8.65;;;2.20;;
76610;SDS011;65503;48.534;9.062;2023-10-13T10:10:06;13.57;;;2.55;;
76610;SDS011;65503;48.534;9.062;2023-10-13T10:12:46;6.35;;;2.20;;
76610;SDS011;65503;48.534;9.062;2023-10-13T10:15:24;11.10;;;2.53;;
76610;SDS011;65503;48.534;9.062;2023-10-13T10:17:57;8.23;;;2.20;;
76610;SDS011;65503;48.534;9.062;2023-10-13T10:23:08;7.68;;;2.58;;
76610;SDS011;65503;48.534;9.062;2023-10-13T10:25:48;8.55;;;2.55;;
76610;SDS011;65503;48.534;9.062;2023-10-13T10:28:17;12.88;;;2.88;;
76610;SDS011;65503;48.534;9.062;2023-10-13T10:30:45;8.55;;;2.78;;
76610;SDS011;65503;48.534;9.062;2023-10-13T10:35:40;6.50;;;1.83;;
76610;SDS011;65503;48.534;9.062;2023-10-13T10:38:13;10.68;;;2.97;;
76610;SDS011;65503;48.534;9.062;2023-10-13T10:40:53;7.65;;;2.42;;
76610;SDS011;65503;48.534;9.062;2023-10-13T10:43:27;8.82;;;2.20;;
76610;SDS011;65503;48.534;9.062;2023-10-13T10:46:11;9.07;;;2.00;;
76610;SDS011;65503;48.534;9.062;2023-10-13T10:48:43;6.65;;;2.33;;
76610;SDS011;65503;48.534;9.062;2023-10-13T10:51:12;5.85;;;2.15;;
76610;SDS011;65503;48.534;9.062;2023-10-13T10:53:51;6.43;;;2.53;;
76610;SDS011;65503;48.534;9.062;2023-10-13T10:56:22;7.50;;;2.35;;
76610;SDS011;65503;48.534;9.062;2023-10-13T10:59:05;7.18;;;2.40;;
76610;SDS011;65503;48.534;9.062;2023-10-13T11:01:46;9.63;;;2.90;;
76610;SDS011;65503;48.534;9.062;2023-10-13T11:04:18;7.97;;;2.40;;
76610;SDS011;65503;48.534;9.062;2023-10-13T11:06:50;5.82;;;1.88;;
76610;SDS011;65503;48.534;9.062;2023-10-13T11:09:24;11.65;;;2.70;;
76610;SDS011;65503;48.534;9.062;2023-10-13T11:14:42;10.00;;;2.45;;
76610;SDS011;65503;48.534;9.062;2023-10-13T11:17:18;8.52;;;2.40;;
76610;SDS011;65503;48.534;9.062;2023-10-13T11:20:07;6.30;;;2.38;;
76610;SDS011;65503;48.534;9.062;2023-10-13T11:22:46;8.18;;;2.53;;
76610;SDS011;65503;48.534;9.062;2023-10-13T11:25:21;6.95;;;2.20;;
76610;SDS011;65503;48.534;9.062;2023-10-13T11:27:49;7.15;;;2.45;;
76610;SDS011;65503;48.534;9.062;2023-10-13T11:32:59;6.60;;;2.13;;
76610;SDS011;65503;48.534;9.062;2023-10-13T11:35:35;6.93;;;2.28;;
76610;SDS011;65503;48.534;9.062;2023-10-13T11:38:23;6.55;;;2.40;;
76610;SDS011;65503;48.534;9.062;2023-10-13T11:40:58;9.93;;;2.63;;
76610;SDS011;65503;48.534;9.062;2023-10-13T11:43:34;8.02;;;2.75;;
76610;SDS011;65503;48.534;9.062;2023-10-13T11:46:19;7.13;;;2.13;;
76610;SDS011;65503;48.534;9.062;2023-10-13T11:49:02;6.50;;;2.50;;
76610;SDS011;65503;48.534;9.062;2023-10-13T11:51:40;9.20;;;2.53;;
76610;SDS011;65503;48.534;9.062;2023-10-13T11:54:12;5.60;;;2.50;;
76610;SDS011;65503;48.534;9.062;2023-10-13T11:56:42;5.40;;;2.42;;
76610;SDS011;65503;48.534;9.062;2023-10-13T11:59:09;6.28;;;2.30;;
76610;SDS011;65503;48.534;9.062;2023-10-13T12:01:45;6.47;;;2.13;;
76610;SDS011;65503;48.534;9.062;2023-10-13T12:04:34;7.43;;;2.70;;
76610;SDS011;65503;48.534;9.062;2023-10-13T12:07:09;5.60;;;2.63;;
76610;SDS011;65503;48.534;9.062;2023-10-13T12:09:54;6.97;;;2.53;;
76610;SDS011;65503;48.534;9.062;2023-10-13T12:14:49;10.18;;;2.50;;
76610;SDS011;65503;48.534;9.062;2023-10-13T12:17:19;6.32;;;2.70;;
76610;SDS011;65503;48.534;9.062;2023-10-13T12:19:51;5.97;;;2.38;;
76610;SDS011;65503;48.534;9.062;2023-10-13T12:22:19;7.75;;;2.78;;
76610;SDS011;65503;48.534;9.062;2023-10-13T12:24:56;6.35;;;2.17;;
76610;SDS011;65503;48.534;9.062;2023-10-13T12:27:23;9.48;;;2.75;;
76610;SDS011;65503;48.534;9.062;2023-10-13T12:29:53;6.28;;;2.30;;
76610;SDS011;65503;48.534;9.062;2023-10-13T12:32:22;5.10;;;2.50;;
76610;SDS011;65503;48.534;9.062;2023-10-13T12:34:51;7.57;;;3.00;;
76610;SDS011;65503;48.534;9.062;2023-10-13T12:37:43;6.97;;;2.83;;
76610;SDS011;65503;48.534;9.062;2023-10-13T12:40:11;8.63;;;2.67;;
76610;SDS011;65503;48.534;9.062;2023-10-13T12:42:57;8.98;;;2.60;;
76610;SDS011;65503;48.534;9.062;2023-10-13T12:45:43;6.93;;;2.78;;
76610;SDS011;65503;48.534;9.062;2023-10-13T12:48:29;10.00;;;2.78;;
76610;SDS011;65503;48.534;9.062;2023-10-13T12:51:15;6.50;;;2.67;;
76610;SDS011;65503;48.534;9.062;2023-10-13T12:54:01;5.80;;;2.75;;
76610;SDS011;65503;48.534;9.062;2023-10-13T12:56:44;11.90;;;2.80;;
76610;SDS011;65503;48.534;9.062;2023-10-13T12:59:10;10.05;;;2.47;;
76610;SDS011;65503;48.534;9.062;2023-10-13T13:01:40;7.93;;;2.67;;
76610;SDS011;65503;48.534;9.062;2023-10-13T13:04:10;10.77;;;3.10;;
76610;SDS011;65503;48.534;9.062;2023-10-13T13:06:47;8.57;;;2.92;;
76610;SDS011;65503;48.534;9.062;2023-10-13T13:09:15;7.10;;;2.30;;
76610;SDS011;65503;48.534;9.062;2023-10-13T13:11:53;7.82;;;2.20;;
76610;SDS011;65503;48.534;9.062;2023-10-13T13:14:24;5.55;;;2.17;;
76610;SDS011;65503;48.534;9.062;2023-10-13T13:16:56;6.68;;;2.33;;
76610;SDS011;65503;48.534;9.062;2023-10-13T13:19:41;6.53;;;2.45;;
76610;SDS011;65503;48.534;9.062;2023-10-13T13:22:08;7.03;;;2.65;;
76610;SDS011;65503;48.534;9.062;2023-10-13T13:24:39;8.07;;;2.42;;
76610;SDS011;65503;48.534;9.062;2023-10-13T13:27:10;11.90;;;2.80;;
76610;SDS011;65503;48.534;9.062;2023-10-13T13:29:49;4.95;;;2.25;;
76610;SDS011;65503;48.534;9.062;2023-10-13T13:32:15;9.50;;;3.05;;
76610;SDS011;65503;48.534;9.062;2023-10-13T13:34:52;9.13;;;2.80;;
76610;SDS011;65503;48.534;9.062;2023-10-13T13:37:25;9.55;;;2.83;;
76610;SDS011;65503;48.534;9.062;2023-10-13T13:39:55;11.88;;;2.70;;
76610;SDS011;65503;48.534;9.062;2023-10-13T13:44:48;7.53;;;2.58;;
76610;SDS011;65503;48.534;9.062;2023-10-13T13:49:43;5.30;;;2.30;;
76610;SDS011;65503;48.534;9.062;2023-10-13T13:52:18;8.38;;;2.53;;
76610;SDS011;65503;48.534;9.062;2023-10-13T13:54:47;8.10;;;2.72;;
76610;SDS011;65503;48.534;9.062;2023-10-13T13:57:14;8.95;;;2.30;;
76610;SDS011;65503;48.534;9.062;2023-10-13T13:59:41;7.80;;;2.53;;
76610;SDS011;65503;48.534;9.062;2023-10-13T14:02:11;6.30;;;2.40;;
76610;SDS011;65503;48.534;9.062;2023-10-13T14:04:47;12.82;;;2.85;;
76610;SDS011;65503;48.534;9.062;2023-10-13T14:07:18;6.32;;;2.10;;
76610;SDS011;65503;48.534;9.062;2023-10-13T14:09:46;5.72;;;2.13;;
76610;SDS011;65503;48.534;9.062;2023-10-13T14:12:18;7.15;;;1.90;;
76610;SDS011;65503;48.534;9.062;2023-10-13T14:15:04;7.00;;;2.38;;
76610;SDS011;65503;48.534;9.062;2023-10-13T14:17:48;7.05;;;2.15;;
76610;SDS011;65503;48.534;9.062;2023-10-13T14:20:15;5.43;;;2.13;;
76610;SDS011;65503;48.534;9.062;2023-10-13T14:22:45;7.22;;;2.33;;
76610;SDS011;65503;48.534;9.062;2023-10-13T14:25:15;6.80;;;2.60;;
76610;SDS011;65503;48.534;9.062;2023-10-13T14:27:43;9.10;;;3.35;;
76610;SDS011;65503;48.534;9.062;2023-10-13T14:32:36;8.75;;;2.20;;
76610;SDS011;65503;48.534;9.062;2023-10-13T14:35:06;8.60;;;2.28;;
76610;SDS011;65503;48.534;9.062;2023-10-13T14:37:42;5.63;;;2.10;;
76610;SDS011;65503;48.534;9.062;2023-10-13T14:40:09;6.53;;;2.00;;
76610;SDS011;65503;48.534;9.062;2023-10-13T14:42:42;5.43;;;1.90;;
76610;SDS011;65503;48.534;9.062;2023-10-13T14:47:40;5.30;;;1.58;;
76610;SDS011;65503;48.534;9.062;2023-10-13T14:50:07;5.07;;;1.80;;
76610;SDS011;65503;48.534;9.062;2023-10-13T14:52:40;7.70;;;1.75;;
76610;SDS011;65503;48.534;9.062;2023-10-13T14:57:48;6.95;;;1.67;;
76610;SDS011;65503;48.534;9.062;2023-10-13T15:00:17;8.95;;;1.98;;
76610;SDS011;65503;48.534;9.062;2023-10-13T15:02:51;4.85;;;1.70;;
76610;SDS011;65503;48.534;9.062;2023-10-13T15:05:19;7.10;;;2.05;;
76610;SDS011;65503;48.534;9.062;2023-10-13T15:07:46;4.65;;;1.70;;
76610;SDS011;65503;48.534;9.062;2023-10-13T15:10:13;5.40;;;1.88;;
76610;SDS011;65503;48.534;9.062;2023-10-13T15:12:42;5.68;;;1.88;;
76610;SDS011;65503;48.534;9.062;2023-10-13T15:15:10;5.28;;;1.60;;
76610;SDS011;65503;48.534;9.062;2023-10-13T15:17:40;9.27;;;1.90;;
76610;SDS011;65503;48.534;9.062;2023-10-13T15:20:07;5.50;;;1.90;;
76610;SDS011;65503;48.534;9.062;2023-10-13T15:22:45;7.03;;;2.05;;
76610;SDS011;65503;48.534;9.062;2023-10-13T15:25:15;8.02;;;2.10;;
76610;SDS011;65503;48.534;9.062;2023-10-13T15:27:58;6.32;;;1.70;;
76610;SDS011;65503;48.534;9.062;2023-10-13T15:30:28;4.45;;;2.17;;
76610;SDS011;65503;48.534;9.062;2023-10-13T15:33:11;6.00;;;1.73;;
76610;SDS011;65503;48.534;9.062;2023-10-13T15:35:40;4.30;;;1.75;;
76610;SDS011;65503;48.534;9.062;2023-10-13T15:38:11;7.00;;;2.00;;
76610;SDS011;65503;48.534;9.062;2023-10-13T15:40:42;5.97;;;2.05;;
76610;SDS011;65503;48.534;9.062;2023-10-13T15:43:10;7.50;;;2.03;;
76610;SDS011;65503;48.534;9.062;2023-10-13T15:45:38;5.97;;;2.08;;
76610;SDS011;65503;48.534;9.062;2023-10-13T15:48:09;5.55;;;1.80;;
76610;SDS011;65503;48.534;9.062;2023-10-13T15:50:44;6.32;;;1.90;;
76610;SDS011;65503;48.534;9.062;2023-10-13T15:55:40;5.80;;;2.40;;
76610;SDS011;65503;48.534;9.062;2023-10-13T15:58:08;4.53;;;1.85;;
76610;SDS011;65503;48.534;9.062;2023-10-13T16:00:35;5.38;;;1.83;;
76610;SDS011;65503;48.534;9.062;2023-10-13T16:03:02;5.25;;;2.00;;
76610;SDS011;65503;48.534;9.062;2023-10-13T16:05:38;4.15;;;1.55;;
76610;SDS011;65503;48.534;9.062;2023-10-13T16:08:09;6.10;;;1.85;;
76610;SDS011;65503;48.534;9.062;2023-10-13T16:10:39;6.63;;;2.60;;
76610;SDS011;65503;48.534;9.062;2023-10-13T16:13:06;4.07;;;2.10;;
76610;SDS011;65503;48.534;9.062;2023-10-13T16:15:41;4.15;;;2.00;;
76610;SDS011;65503;48.534;9.062;2023-10-13T16:18:14;6.07;;;2.13;;
76610;SDS011;65503;48.534;9.062;2023-10-13T16:20:41;5.85;;;2.22;;
76610;SDS011;65503;48.534;9.062;2023-10-13T16:23:07;4.43;;;2.20;;
76610;SDS011;65503;48.534;9.062;2023-10-13T16:25:35;4.43;;;2.10;;
76610;SDS011;65503;48.534;9.062;2023-10-13T16:28:02;4.20;;;1.85;;
76610;SDS011;65503;48.534;9.062;2023-10-13T16:30:29;5.95;;;2.00;;
76610;SDS011;65503;48.534;9.062;2023-10-13T16:32:55;4.97;;;2.20;;